sensor_id;sensor_type;location;lat;lon;timestamp;P1;durP1;ratioP1;P2;durP2;ratioP2
19173;SDS011;9719;49.322;8.536;2022-08-18T00:04:37;3.83;;;3.30;;
19173;SDS011;9719;49.322;8.536;2022-08-18T00:09:39;4.95;;;3.58;;
19173;SDS011;9719;49.322;8.536;2022-08-18T00:14:42;3.72;;;3.28;;
19173;SDS011;9719;49.322;8.536;2022-08-18T00:19:46;3.90;;;3.60;;
19173;SDS011;9719;49.322;8.536;2022-08-18T00:24:49;4.57;;;4.15;;
19173;SDS011;9719;49.322;8.536;2022-08-18T00:29:53;4.35;;;3.38;;
19173;SDS011;9719;49.322;8.536;2022-08-18T00:35:03;4.20;;;3.60;;
19173;SDS011;9719;49.322;8.536;2022-08-18T00:40:08;3.40;;;2.92;;
19173;SDS011;9719;49.322;8.536;2022-08-18T00:45:13;5.65;;;3.55;;
19173;SDS011;9719;49.322;8.536;2022-08-18T00:50:18;3.45;;;3.15;;
19173;SDS011;9719;49.322;8.536;2022-08-18T00:55:23;3.75;;;3.45;;
19173;SDS011;9719;49.322;8.536;2022-08-18T01:00:28;4.03;;;3.63;;
19173;SDS011;9719;49.322;8.536;2022-08-18T01:05:33;4.72;;;3.10;;
19173;SDS011;9719;49.322;8.536;2022-08-18T01:10:42;3.60;;;3.30;;
19173;SDS011;9719;49.322;8.536;2022-08-18T01:15:45;3.67;;;3.03;;
19173;SDS011;9719;49.322;8.536;2022-08-18T01:20:51;3.58;;;3.28;;
19173;SDS011;9719;49.322;8.536;2022-08-18T01:26:19;3.53;;;3.22;;
19173;SDS011;9719;49.322;8.536;2022-08-18T01:31:29;4.05;;;3.05;;
19173;SDS011;9719;49.322;8.536;2022-08-18T01:36:37;3.85;;;3.45;;
19173;SDS011;9719;49.322;8.536;2022-08-18T01:41:42;4.00;;;3.70;;
19173;SDS011;9719;49.322;8.536;2022-08-18T01:46:43;4.85;;;3.22;;
19173;SDS011;9719;49.322;8.536;2022-08-18T01:51:45;3.60;;;2.97;;
19173;SDS011;9719;49.322;8.536;2022-08-18T01:56:49;3.95;;;3.22;;
19173;SDS011;9719;49.322;8.536;2022-08-18T02:01:52;3.22;;;2.92;;
19173;SDS011;9719;49.322;8.536;2022-08-18T02:06:55;3.80;;;3.50;;
19173;SDS011;9719;49.322;8.536;2022-08-18T02:11:58;3.53;;;3.22;;
19173;SDS011;9719;49.322;8.536;2022-08-18T02:17:01;3.63;;;3.33;;
19173;SDS011;9719;49.322;8.536;2022-08-18T02:22:05;3.80;;;3.20;;
19173;SDS011;9719;49.322;8.536;2022-08-18T02:27:11;3.50;;;3.20;;
19173;SDS011;9719;49.322;8.536;2022-08-18T02:32:14;3.60;;;3.30;;
19173;SDS011;9719;49.322;8.536;2022-08-18T02:37:16;3.97;;;3.63;;
19173;SDS011;9719;49.322;8.536;2022-08-18T02:42:19;3.30;;;3.00;;
19173;SDS011;9719;49.322;8.536;2022-08-18T02:47:21;3.65;;;3.35;;
19173;SDS011;9719;49.322;8.536;2022-08-18T02:52:23;3.80;;;3.38;;
19173;SDS011;9719;49.322;8.536;2022-08-18T02:57:29;3.92;;;3.63;;
19173;SDS011;9719;49.322;8.536;2022-08-18T03:02:31;3.00;;;2.80;;
19173;SDS011;9719;49.322;8.536;2022-08-18T03:07:33;3.42;;;3.13;;
19173;SDS011;9719;49.322;8.536;2022-08-18T03:12:36;3.83;;;3.53;;
19173;SDS011;9719;49.322;8.536;2022-08-18T03:17:38;4.10;;;3.65;;
19173;SDS011;9719;49.322;8.536;2022-08-18T03:22:40;4.95;;;3.58;;
19173;SDS011;9719;49.322;8.536;2022-08-18T03:27:44;4.55;;;3.50;;
19173;SDS011;9719;49.322;8.536;2022-08-18T03:32:46;3.90;;;3.60;;
19173;SDS011;9719;49.322;8.536;2022-08-18T03:37:48;3.90;;;3.60;;
19173;SDS011;9719;49.322;8.536;2022-08-18T03:42:52;4.28;;;3.88;;
19173;SDS011;9719;49.322;8.536;2022-08-18T03:47:54;4.93;;;3.92;;
19173;SDS011;9719;49.322;8.536;2022-08-18T03:52:56;4.60;;;4.20;;
19173;SDS011;9719;49.322;8.536;2022-08-18T03:58:00;4.32;;;3.72;;
19173;SDS011;9719;49.322;8.536;2022-08-18T04:03:03;4.43;;;4.03;;
19173;SDS011;9719;49.322;8.536;2022-08-18T04:08:05;4.47;;;4.07;;
19173;SDS011;9719;49.322;8.536;2022-08-18T04:13:08;5.35;;;4.22;;
19173;SDS011;9719;49.322;8.536;2022-08-18T04:18:10;5.53;;;5.03;;
19173;SDS011;9719;49.322;8.536;2022-08-18T04:23:12;5.13;;;4.57;;
19173;SDS011;9719;49.322;8.536;2022-08-18T04:28:17;4.97;;;4.47;;
19173;SDS011;9719;49.322;8.536;2022-08-18T04:33:19;5.72;;;5.22;;
19173;SDS011;9719;49.322;8.536;2022-08-18T04:38:21;4.72;;;4.32;;
19173;SDS011;9719;49.322;8.536;2022-08-18T04:43:25;5.15;;;4.75;;
19173;SDS011;9719;49.322;8.536;2022-08-18T04:48:28;5.30;;;4.80;;
19173;SDS011;9719;49.322;8.536;2022-08-18T04:53:33;5.53;;;5.00;;
19173;SDS011;9719;49.322;8.536;2022-08-18T04:58:49;5.25;;;4.75;;
19173;SDS011;9719;49.322;8.536;2022-08-18T05:03:52;5.30;;;4.72;;
19173;SDS011;9719;49.322;8.536;2022-08-18T05:08:55;5.50;;;5.00;;
19173;SDS011;9719;49.322;8.536;2022-08-18T05:14:01;5.53;;;4.85;;
19173;SDS011;9719;49.322;8.536;2022-08-18T05:19:04;5.75;;;5.25;;
19173;SDS011;9719;49.322;8.536;2022-08-18T05:24:14;4.90;;;4.45;;
19173;SDS011;9719;49.322;8.536;2022-08-18T05:29:48;4.75;;;4.35;;
19173;SDS011;9719;49.322;8.536;2022-08-18T05:34:55;5.25;;;4.75;;
19173;SDS011;9719;49.322;8.536;2022-08-18T05:40:00;5.18;;;4.68;;
19173;SDS011;9719;49.322;8.536;2022-08-18T05:45:07;6.15;;;5.60;;
19173;SDS011;9719;49.322;8.536;2022-08-18T05:50:12;6.43;;;5.80;;
19173;SDS011;9719;49.322;8.536;2022-08-18T05:55:18;6.10;;;5.50;;
19173;SDS011;9719;49.322;8.536;2022-08-18T06:00:46;6.00;;;5.40;;
19173;SDS011;9719;49.322;8.536;2022-08-18T06:05:54;5.80;;;5.30;;
19173;SDS011;9719;49.322;8.536;2022-08-18T06:11:00;6.50;;;5.25;;
19173;SDS011;9719;49.322;8.536;2022-08-18T06:16:04;5.63;;;5.13;;
19173;SDS011;9719;49.322;8.536;2022-08-18T06:21:27;6.25;;;5.65;;
19173;SDS011;9719;49.322;8.536;2022-08-18T06:26:39;7.55;;;5.43;;
19173;SDS011;9719;49.322;8.536;2022-08-18T06:31:50;6.00;;;5.43;;
19173;SDS011;9719;49.322;8.536;2022-08-18T06:36:57;6.57;;;5.80;;
19173;SDS011;9719;49.322;8.536;2022-08-18T06:42:08;6.88;;;5.75;;
19173;SDS011;9719;49.322;8.536;2022-08-18T06:47:12;6.78;;;6.07;;
19173;SDS011;9719;49.322;8.536;2022-08-18T06:52:21;6.72;;;6.13;;
19173;SDS011;9719;49.322;8.536;2022-08-18T06:57:28;7.38;;;6.50;;
19173;SDS011;9719;49.322;8.536;2022-08-18T07:02:39;10.82;;;6.32;;
19173;SDS011;9719;49.322;8.536;2022-08-18T07:08:01;6.85;;;6.22;;
19173;SDS011;9719;49.322;8.536;2022-08-18T07:13:16;6.85;;;6.18;;
19173;SDS011;9719;49.322;8.536;2022-08-18T07:18:23;7.45;;;6.65;;
19173;SDS011;9719;49.322;8.536;2022-08-18T07:23:28;7.38;;;6.68;;
19173;SDS011;9719;49.322;8.536;2022-08-18T07:28:34;8.63;;;6.90;;
19173;SDS011;9719;49.322;8.536;2022-08-18T07:33:40;7.55;;;6.78;;
19173;SDS011;9719;49.322;8.536;2022-08-18T07:38:47;6.70;;;6.18;;
19173;SDS011;9719;49.322;8.536;2022-08-18T07:43:56;7.32;;;6.63;;
19173;SDS011;9719;49.322;8.536;2022-08-18T07:49:07;8.13;;;7.35;;
19173;SDS011;9719;49.322;8.536;2022-08-18T07:54:26;8.05;;;6.85;;
19173;SDS011;9719;49.322;8.536;2022-08-18T07:59:39;7.75;;;7.05;;
19173;SDS011;9719;49.322;8.536;2022-08-18T08:04:48;8.57;;;7.68;;
19173;SDS011;9719;49.322;8.536;2022-08-18T08:10:04;10.23;;;8.45;;
19173;SDS011;9719;49.322;8.536;2022-08-18T08:15:21;8.30;;;7.47;;
19173;SDS011;9719;49.322;8.536;2022-08-18T08:20:29;8.48;;;7.68;;
19173;SDS011;9719;49.322;8.536;2022-08-18T08:25:40;9.30;;;8.30;;
19173;SDS011;9719;49.322;8.536;2022-08-18T08:30:51;8.30;;;7.45;;
19173;SDS011;9719;49.322;8.536;2022-08-18T08:36:03;8.68;;;7.90;;
19173;SDS011;9719;49.322;8.536;2022-08-18T08:41:08;8.55;;;7.65;;
19173;SDS011;9719;49.322;8.536;2022-08-18T08:46:15;7.88;;;7.07;;
19173;SDS011;9719;49.322;8.536;2022-08-18T08:51:28;8.50;;;7.70;;
19173;SDS011;9719;49.322;8.536;2022-08-18T08:56:39;9.20;;;8.23;;
19173;SDS011;9719;49.322;8.536;2022-08-18T09:01:47;10.48;;;9.13;;
19173;SDS011;9719;49.322;8.536;2022-08-18T09:07:04;10.80;;;9.80;;
19173;SDS011;9719;49.322;8.536;2022-08-18T09:12:22;10.68;;;9.57;;
19173;SDS011;9719;49.322;8.536;2022-08-18T09:17:46;10.50;;;9.50;;
19173;SDS011;9719;49.322;8.536;2022-08-18T09:23:15;16.50;;;11.23;;
19173;SDS011;9719;49.322;8.536;2022-08-18T09:28:21;13.45;;;12.07;;
19173;SDS011;9719;49.322;8.536;2022-08-18T09:33:47;19.17;;;13.68;;
19173;SDS011;9719;49.322;8.536;2022-08-18T09:39:11;17.30;;;15.50;;
19173;SDS011;9719;49.322;8.536;2022-08-18T09:44:59;19.83;;;15.02;;
19173;SDS011;9719;49.322;8.536;2022-08-18T09:55:40;17.13;;;14.65;;
19173;SDS011;9719;49.322;8.536;2022-08-18T10:06:20;17.45;;;14.35;;
19173;SDS011;9719;49.322;8.536;2022-08-18T10:11:35;16.25;;;14.45;;
19173;SDS011;9719;49.322;8.536;2022-08-18T10:16:48;20.63;;;15.52;;
19173;SDS011;9719;49.322;8.536;2022-08-18T10:22:05;15.90;;;13.63;;
19173;SDS011;9719;49.322;8.536;2022-08-18T10:32:45;16.98;;;14.30;;
19173;SDS011;9719;49.322;8.536;2022-08-18T10:37:47;19.27;;;15.00;;
19173;SDS011;9719;49.322;8.536;2022-08-18T10:42:52;17.45;;;15.68;;
19173;SDS011;9719;49.322;8.536;2022-08-18T10:48:09;18.48;;;16.58;;
19173;SDS011;9719;49.322;8.536;2022-08-18T10:53:16;18.98;;;16.98;;
19173;SDS011;9719;49.322;8.536;2022-08-18T10:58:39;19.05;;;17.05;;
19173;SDS011;9719;49.322;8.536;2022-08-18T11:04:01;17.05;;;15.35;;
19173;SDS011;9719;49.322;8.536;2022-08-18T11:09:07;15.70;;;14.10;;
19173;SDS011;9719;49.322;8.536;2022-08-18T11:19:50;16.52;;;14.90;;
19173;SDS011;9719;49.322;8.536;2022-08-18T11:24:53;16.95;;;15.10;;
19173;SDS011;9719;49.322;8.536;2022-08-18T11:29:58;17.75;;;14.77;;
19173;SDS011;9719;49.322;8.536;2022-08-18T11:35:04;16.55;;;14.50;;
19173;SDS011;9719;49.322;8.536;2022-08-18T11:40:20;14.07;;;12.68;;
19173;SDS011;9719;49.322;8.536;2022-08-18T11:45:29;14.55;;;12.98;;
19173;SDS011;9719;49.322;8.536;2022-08-18T11:50:44;13.95;;;12.55;;
19173;SDS011;9719;49.322;8.536;2022-08-18T11:56:00;14.30;;;12.80;;
19173;SDS011;9719;49.322;8.536;2022-08-18T12:01:04;14.15;;;12.65;;
19173;SDS011;9719;49.322;8.536;2022-08-18T12:06:11;15.07;;;13.35;;
19173;SDS011;9719;49.322;8.536;2022-08-18T12:11:20;15.60;;;13.45;;
19173;SDS011;9719;49.322;8.536;2022-08-18T12:16:30;14.23;;;12.80;;
19173;SDS011;9719;49.322;8.536;2022-08-18T12:21:37;15.30;;;13.80;;
19173;SDS011;9719;49.322;8.536;2022-08-18T12:26:40;13.82;;;12.43;;
19173;SDS011;9719;49.322;8.536;2022-08-18T12:31:42;12.65;;;11.00;;
19173;SDS011;9719;49.322;8.536;2022-08-18T12:36:45;13.73;;;11.57;;
19173;SDS011;9719;49.322;8.536;2022-08-18T12:41:47;10.70;;;9.55;;
19173;SDS011;9719;49.322;8.536;2022-08-18T12:46:50;13.23;;;10.88;;
19173;SDS011;9719;49.322;8.536;2022-08-18T12:51:53;10.85;;;9.85;;
19173;SDS011;9719;49.322;8.536;2022-08-18T12:56:55;12.60;;;11.43;;
19173;SDS011;9719;49.322;8.536;2022-08-18T13:01:58;10.02;;;9.07;;
19173;SDS011;9719;49.322;8.536;2022-08-18T13:07:01;9.38;;;8.40;;
19173;SDS011;9719;49.322;8.536;2022-08-18T13:12:07;8.18;;;7.45;;
19173;SDS011;9719;49.322;8.536;2022-08-18T13:17:09;7.72;;;7.03;;
19173;SDS011;9719;49.322;8.536;2022-08-18T13:22:12;7.15;;;6.55;;
19173;SDS011;9719;49.322;8.536;2022-08-18T13:27:14;7.15;;;6.55;;
19173;SDS011;9719;49.322;8.536;2022-08-18T13:32:17;6.60;;;6.00;;
19173;SDS011;9719;49.322;8.536;2022-08-18T13:37:20;6.18;;;5.68;;
19173;SDS011;9719;49.322;8.536;2022-08-18T13:42:22;5.80;;;5.30;;
19173;SDS011;9719;49.322;8.536;2022-08-18T13:47:24;5.53;;;5.03;;
19173;SDS011;9719;49.322;8.536;2022-08-18T13:52:29;7.43;;;5.22;;
19173;SDS011;9719;49.322;8.536;2022-08-18T13:57:31;8.00;;;7.32;;
19173;SDS011;9719;49.322;8.536;2022-08-18T14:02:33;8.02;;;7.38;;
19173;SDS011;9719;49.322;8.536;2022-08-18T14:07:36;7.95;;;7.25;;
19173;SDS011;9719;49.322;8.536;2022-08-18T14:12:38;7.80;;;7.10;;
19173;SDS011;9719;49.322;8.536;2022-08-18T14:17:41;8.63;;;7.82;;
19173;SDS011;9719;49.322;8.536;2022-08-18T14:22:45;8.85;;;8.05;;
19173;SDS011;9719;49.322;8.536;2022-08-18T14:28:04;8.68;;;7.88;;
19173;SDS011;9719;49.322;8.536;2022-08-18T14:33:08;8.80;;;7.90;;
19173;SDS011;9719;49.322;8.536;2022-08-18T14:38:11;10.68;;;9.68;;
19173;SDS011;9719;49.322;8.536;2022-08-18T14:43:14;10.00;;;9.13;;
19173;SDS011;9719;49.322;8.536;2022-08-18T14:48:21;9.73;;;8.85;;
19173;SDS011;9719;49.322;8.536;2022-08-18T14:53:31;9.93;;;9.02;;
19173;SDS011;9719;49.322;8.536;2022-08-18T14:58:36;12.40;;;11.20;;
19173;SDS011;9719;49.322;8.536;2022-08-18T15:03:39;11.98;;;10.88;;
19173;SDS011;9719;49.322;8.536;2022-08-18T15:14:17;11.90;;;10.70;;
19173;SDS011;9719;49.322;8.536;2022-08-18T15:19:22;15.07;;;11.30;;
19173;SDS011;9719;49.322;8.536;2022-08-18T15:24:27;12.35;;;10.85;;
19173;SDS011;9719;49.322;8.536;2022-08-18T15:29:47;11.05;;;9.95;;
19173;SDS011;9719;49.322;8.536;2022-08-18T15:34:50;11.27;;;10.25;;
19173;SDS011;9719;49.322;8.536;2022-08-18T15:40:00;10.57;;;9.57;;
19173;SDS011;9719;49.322;8.536;2022-08-18T15:45:18;9.82;;;8.98;;
19173;SDS011;9719;49.322;8.536;2022-08-18T15:50:27;10.23;;;8.57;;
19173;SDS011;9719;49.322;8.536;2022-08-18T15:55:32;9.23;;;8.32;;
19173;SDS011;9719;49.322;8.536;2022-08-18T16:00:35;8.15;;;6.75;;
19173;SDS011;9719;49.322;8.536;2022-08-18T16:05:41;6.28;;;5.78;;
19173;SDS011;9719;49.322;8.536;2022-08-18T16:11:04;5.68;;;5.10;;
19173;SDS011;9719;49.322;8.536;2022-08-18T16:16:19;5.88;;;5.38;;
19173;SDS011;9719;49.322;8.536;2022-08-18T16:21:22;6.50;;;5.90;;
19173;SDS011;9719;49.322;8.536;2022-08-18T16:26:26;6.18;;;5.57;;
19173;SDS011;9719;49.322;8.536;2022-08-18T16:31:28;5.60;;;5.10;;
19173;SDS011;9719;49.322;8.536;2022-08-18T16:36:30;5.53;;;5.03;;
19173;SDS011;9719;49.322;8.536;2022-08-18T16:41:33;6.63;;;6.03;;
19173;SDS011;9719;49.322;8.536;2022-08-18T16:46:35;5.25;;;4.85;;
19173;SDS011;9719;49.322;8.536;2022-08-18T16:51:37;5.15;;;4.72;;
19173;SDS011;9719;49.322;8.536;2022-08-18T16:56:41;4.93;;;4.53;;
19173;SDS011;9719;49.322;8.536;2022-08-18T17:01:43;5.07;;;4.63;;
19173;SDS011;9719;49.322;8.536;2022-08-18T17:07:03;5.43;;;4.85;;
19173;SDS011;9719;49.322;8.536;2022-08-18T17:12:07;5.38;;;4.88;;
19173;SDS011;9719;49.322;8.536;2022-08-18T17:17:10;5.53;;;5.07;;
19173;SDS011;9719;49.322;8.536;2022-08-18T17:22:13;5.47;;;4.97;;
19173;SDS011;9719;49.322;8.536;2022-08-18T17:27:18;5.63;;;5.22;;
19173;SDS011;9719;49.322;8.536;2022-08-18T17:32:34;6.07;;;4.85;;
19173;SDS011;9719;49.322;8.536;2022-08-18T17:37:40;5.72;;;5.22;;
19173;SDS011;9719;49.322;8.536;2022-08-18T17:42:49;4.88;;;4.45;;
19173;SDS011;9719;49.322;8.536;2022-08-18T17:47:53;6.05;;;5.45;;
19173;SDS011;9719;49.322;8.536;2022-08-18T17:53:01;5.88;;;5.28;;
19173;SDS011;9719;49.322;8.536;2022-08-18T17:58:08;5.10;;;4.70;;
19173;SDS011;9719;49.322;8.536;2022-08-18T18:03:27;5.97;;;5.47;;
19173;SDS011;9719;49.322;8.536;2022-08-18T18:08:48;6.07;;;5.47;;
19173;SDS011;9719;49.322;8.536;2022-08-18T18:13:54;5.50;;;5.00;;
19173;SDS011;9719;49.322;8.536;2022-08-18T18:18:57;7.45;;;6.75;;
19173;SDS011;9719;49.322;8.536;2022-08-18T18:24:15;8.25;;;6.28;;
19173;SDS011;9719;49.322;8.536;2022-08-18T18:29:21;7.65;;;6.95;;
19173;SDS011;9719;49.322;8.536;2022-08-18T18:34:33;7.88;;;7.18;;
19173;SDS011;9719;49.322;8.536;2022-08-18T18:39:38;8.50;;;7.68;;
19173;SDS011;9719;49.322;8.536;2022-08-18T18:44:47;8.63;;;7.72;;
19173;SDS011;9719;49.322;8.536;2022-08-18T18:49:57;9.00;;;8.13;;
19173;SDS011;9719;49.322;8.536;2022-08-18T18:55:04;8.98;;;8.07;;
19173;SDS011;9719;49.322;8.536;2022-08-18T19:00:17;9.02;;;7.95;;
19173;SDS011;9719;49.322;8.536;2022-08-18T19:05:24;11.05;;;9.13;;
19173;SDS011;9719;49.322;8.536;2022-08-18T19:10:35;10.23;;;8.10;;
19173;SDS011;9719;49.322;8.536;2022-08-18T19:15:41;10.23;;;8.65;;
19173;SDS011;9719;49.322;8.536;2022-08-18T19:20:46;11.52;;;7.57;;
19173;SDS011;9719;49.322;8.536;2022-08-18T19:25:53;11.55;;;8.52;;
19173;SDS011;9719;49.322;8.536;2022-08-18T19:31:01;7.72;;;6.90;;
19173;SDS011;9719;49.322;8.536;2022-08-18T19:36:09;8.00;;;7.20;;
19173;SDS011;9719;49.322;8.536;2022-08-18T19:41:18;10.35;;;8.02;;
19173;SDS011;9719;49.322;8.536;2022-08-18T19:46:29;11.20;;;8.68;;
19173;SDS011;9719;49.322;8.536;2022-08-18T19:51:39;8.30;;;7.47;;
19173;SDS011;9719;49.322;8.536;2022-08-18T19:56:51;8.48;;;7.55;;
19173;SDS011;9719;49.322;8.536;2022-08-18T20:02:08;8.40;;;7.60;;
19173;SDS011;9719;49.322;8.536;2022-08-18T20:07:42;9.27;;;7.80;;
19173;SDS011;9719;49.322;8.536;2022-08-18T20:12:59;8.70;;;7.43;;
19173;SDS011;9719;49.322;8.536;2022-08-18T20:18:19;9.02;;;7.53;;
19173;SDS011;9719;49.322;8.536;2022-08-18T20:23:29;8.80;;;7.05;;
19173;SDS011;9719;49.322;8.536;2022-08-18T20:28:37;8.70;;;7.40;;
19173;SDS011;9719;49.322;8.536;2022-08-18T20:33:51;8.75;;;7.47;;
19173;SDS011;9719;49.322;8.536;2022-08-18T20:44:55;9.07;;;7.57;;
19173;SDS011;9719;49.322;8.536;2022-08-18T20:50:10;9.52;;;7.88;;
19173;SDS011;9719;49.322;8.536;2022-08-18T20:55:38;10.43;;;6.78;;
19173;SDS011;9719;49.322;8.536;2022-08-18T21:00:50;10.68;;;7.38;;
19173;SDS011;9719;49.322;8.536;2022-08-18T21:05:57;8.65;;;7.82;;
19173;SDS011;9719;49.322;8.536;2022-08-18T21:11:03;8.77;;;7.80;;
19173;SDS011;9719;49.322;8.536;2022-08-18T21:16:44;7.82;;;7.03;;
19173;SDS011;9719;49.322;8.536;2022-08-18T21:21:49;8.38;;;7.15;;
19173;SDS011;9719;49.322;8.536;2022-08-18T21:26:53;8.82;;;7.50;;
19173;SDS011;9719;49.322;8.536;2022-08-18T21:32:05;10.98;;;7.55;;
19173;SDS011;9719;49.322;8.536;2022-08-18T21:37:13;8.85;;;7.95;;
19173;SDS011;9719;49.322;8.536;2022-08-18T21:42:17;9.50;;;7.95;;
19173;SDS011;9719;49.322;8.536;2022-08-18T21:47:23;11.35;;;8.25;;
19173;SDS011;9719;49.322;8.536;2022-08-18T21:52:28;9.80;;;8.80;;
19173;SDS011;9719;49.322;8.536;2022-08-18T21:57:58;10.65;;;9.18;;
19173;SDS011;9719;49.322;8.536;2022-08-18T22:03:10;11.23;;;8.80;;
19173;SDS011;9719;49.322;8.536;2022-08-18T22:08:21;10.40;;;9.30;;
19173;SDS011;9719;49.322;8.536;2022-08-18T22:13:26;10.13;;;8.93;;
19173;SDS011;9719;49.322;8.536;2022-08-18T22:19:11;10.75;;;9.15;;
19173;SDS011;9719;49.322;8.536;2022-08-18T22:24:28;11.30;;;9.13;;
19173;SDS011;9719;49.322;8.536;2022-08-18T22:29:38;13.10;;;10.32;;
19173;SDS011;9719;49.322;8.536;2022-08-18T22:34:45;13.63;;;10.52;;
19173;SDS011;9719;49.322;8.536;2022-08-18T22:39:51;13.73;;;9.68;;
19173;SDS011;9719;49.322;8.536;2022-08-18T22:44:55;14.85;;;10.65;;
19173;SDS011;9719;49.322;8.536;2022-08-18T22:49:57;12.30;;;9.90;;
19173;SDS011;9719;49.322;8.536;2022-08-18T22:55:02;11.90;;;10.50;;
19173;SDS011;9719;49.322;8.536;2022-08-18T23:00:09;12.68;;;9.63;;
19173;SDS011;9719;49.322;8.536;2022-08-18T23:05:14;13.30;;;11.10;;
19173;SDS011;9719;49.322;8.536;2022-08-18T23:10:17;13.60;;;10.57;;
19173;SDS011;9719;49.322;8.536;2022-08-18T23:15:20;12.80;;;10.52;;
19173;SDS011;9719;49.322;8.536;2022-08-18T23:20:37;14.82;;;11.15;;
19173;SDS011;9719;49.322;8.536;2022-08-18T23:25:41;14.52;;;10.55;;
19173;SDS011;9719;49.322;8.536;2022-08-18T23:30:43;12.40;;;10.73;;
19173;SDS011;9719;49.322;8.536;2022-08-18T23:35:45;12.57;;;11.25;;
19173;SDS011;9719;49.322;8.536;2022-08-18T23:40:50;14.30;;;11.45;;
19173;SDS011;9719;49.322;8.536;2022-08-18T23:45:52;13.20;;;11.20;;
19173;SDS011;9719;49.322;8.536;2022-08-18T23:50:54;12.82;;;11.48;;
19173;SDS011;9719;49.322;8.536;2022-08-18T23:56:03;12.55;;;11.15;;
